sensor_id;sensor_type;location;lat;lon;timestamp;pressure;altitude;pressure_sealevel;temperature;humidity
19624;BME280;9959;49.798;9.928;2022-09-17T00:01:27;99020.03;;;8.85;nan
19624;BME280;9959;49.798;9.928;2022-09-17T00:03:59;99028.75;;;8.86;nan
19624;BME280;9959;49.798;9.928;2022-09-17T00:06:30;99025.50;;;8.84;nan
19624;BME280;9959;49.798;9.928;2022-09-17T00:08:59;99025.28;;;8.85;nan
19624;BME280;9959;49.798;9.928;2022-09-17T00:11:28;99023.03;;;8.89;nan
19624;BME280;9959;49.798;9.928;2022-09-17T00:13:58;99030.25;;;8.94;nan
19624;BME280;9959;49.798;9.928;2022-09-17T00:16:28;99030.81;;;8.96;nan
19624;BME280;9959;49.798;9.928;2022-09-17T00:18:59;99033.66;;;8.94;nan
19624;BME280;9959;49.798;9.928;2022-09-17T00:21:27;99034.69;;;8.93;nan
19624;BME280;9959;49.798;9.928;2022-09-17T00:23:56;99031.03;;;8.94;nan
19624;BME280;9959;49.798;9.928;2022-09-17T00:26:26;99035.13;;;8.90;nan
19624;BME280;9959;49.798;9.928;2022-09-17T00:28:55;99025.66;;;8.89;nan
19624;BME280;9959;49.798;9.928;2022-09-17T00:31:24;99025.88;;;8.88;nan
19624;BME280;9959;49.798;9.928;2022-09-17T00:33:52;99027.69;;;8.87;nan
19624;BME280;9959;49.798;9.928;2022-09-17T00:36:22;99035.50;;;8.94;nan
19624;BME280;9959;49.798;9.928;2022-09-17T00:38:50;99031.00;;;8.82;nan
19624;BME280;9959;49.798;9.928;2022-09-17T00:41:19;99033.41;;;8.84;nan
19624;BME280;9959;49.798;9.928;2022-09-17T00:43:48;99032.50;;;8.90;nan
19624;BME280;9959;49.798;9.928;2022-09-17T00:46:25;99035.72;;;8.92;nan
19624;BME280;9959;49.798;9.928;2022-09-17T00:48:58;99034.59;;;9.00;nan
19624;BME280;9959;49.798;9.928;2022-09-17T00:51:33;99039.31;;;9.10;nan
19624;BME280;9959;49.798;9.928;2022-09-17T00:54:03;99045.13;;;9.12;nan
19624;BME280;9959;49.798;9.928;2022-09-17T00:56:34;99043.44;;;9.17;nan
19624;BME280;9959;49.798;9.928;2022-09-17T00:59:03;99050.22;;;9.25;nan
19624;BME280;9959;49.798;9.928;2022-09-17T01:01:32;99045.28;;;9.29;nan
19624;BME280;9959;49.798;9.928;2022-09-17T01:04:00;99049.53;;;9.30;nan
19624;BME280;9959;49.798;9.928;2022-09-17T01:06:33;99049.00;;;9.40;nan
19624;BME280;9959;49.798;9.928;2022-09-17T01:09:13;99049.63;;;9.23;nan
19624;BME280;9959;49.798;9.928;2022-09-17T01:11:58;99058.59;;;9.34;nan
19624;BME280;9959;49.798;9.928;2022-09-17T01:14:40;99050.22;;;9.25;nan
19624;BME280;9959;49.798;9.928;2022-09-17T01:17:16;99046.34;;;9.40;nan
19624;BME280;9959;49.798;9.928;2022-09-17T01:22:59;99047.28;;;9.33;nan
19624;BME280;9959;49.798;9.928;2022-09-17T01:25:37;99061.00;;;9.35;nan
19624;BME280;9959;49.798;9.928;2022-09-17T01:28:31;99053.97;;;9.17;nan
19624;BME280;9959;49.798;9.928;2022-09-17T01:31:25;99049.16;;;9.14;nan
19624;BME280;9959;49.798;9.928;2022-09-17T01:33:59;99040.31;;;9.09;nan
19624;BME280;9959;49.798;9.928;2022-09-17T01:36:42;99044.56;;;9.10;nan
19624;BME280;9959;49.798;9.928;2022-09-17T01:39:20;99050.53;;;9.17;nan
19624;BME280;9959;49.798;9.928;2022-09-17T01:41:56;99043.28;;;9.43;nan
19624;BME280;9959;49.798;9.928;2022-09-17T01:44:28;99048.06;;;9.34;nan
19624;BME280;9959;49.798;9.928;2022-09-17T01:47:03;99052.41;;;9.40;nan
19624;BME280;9959;49.798;9.928;2022-09-17T01:49:34;99055.97;;;9.34;nan
19624;BME280;9959;49.798;9.928;2022-09-17T01:52:06;99053.00;;;9.42;nan
19624;BME280;9959;49.798;9.928;2022-09-17T01:54:39;99047.28;;;9.33;nan
19624;BME280;9959;49.798;9.928;2022-09-17T01:57:13;99045.66;;;9.32;nan
19624;BME280;9959;49.798;9.928;2022-09-17T01:59:47;99049.56;;;9.42;nan
19624;BME280;9959;49.798;9.928;2022-09-17T02:02:21;99039.25;;;9.40;nan
19624;BME280;9959;49.798;9.928;2022-09-17T02:04:56;99053.22;;;9.41;nan
19624;BME280;9959;49.798;9.928;2022-09-17T02:07:26;99040.84;;;9.29;nan
19624;BME280;9959;49.798;9.928;2022-09-17T02:09:58;99050.09;;;9.32;nan
19624;BME280;9959;49.798;9.928;2022-09-17T02:12:33;99030.63;;;9.09;nan
19624;BME280;9959;49.798;9.928;2022-09-17T02:15:07;99037.69;;;8.97;nan
19624;BME280;9959;49.798;9.928;2022-09-17T02:17:41;99044.63;;;8.91;nan
19624;BME280;9959;49.798;9.928;2022-09-17T02:20:11;99045.16;;;8.81;nan
19624;BME280;9959;49.798;9.928;2022-09-17T02:22:42;99046.69;;;8.89;nan
19624;BME280;9959;49.798;9.928;2022-09-17T02:25:19;99055.09;;;8.79;nan
19624;BME280;9959;49.798;9.928;2022-09-17T02:27:57;99053.88;;;8.82;nan
19624;BME280;9959;49.798;9.928;2022-09-17T02:30:29;99054.13;;;8.92;nan
19624;BME280;9959;49.798;9.928;2022-09-17T02:33:00;99052.03;;;8.82;nan
19624;BME280;9959;49.798;9.928;2022-09-17T02:35:29;99041.03;;;8.74;nan
19624;BME280;9959;49.798;9.928;2022-09-17T02:37:58;99046.28;;;8.74;nan
19624;BME280;9959;49.798;9.928;2022-09-17T02:40:28;99045.16;;;8.81;nan
19624;BME280;9959;49.798;9.928;2022-09-17T02:43:08;99041.59;;;8.76;nan
19624;BME280;9959;49.798;9.928;2022-09-17T02:45:47;99043.31;;;8.70;nan
19624;BME280;9959;49.798;9.928;2022-09-17T02:48:32;99032.91;;;8.75;nan
19624;BME280;9959;49.798;9.928;2022-09-17T02:51:18;99037.50;;;8.80;nan
19624;BME280;9959;49.798;9.928;2022-09-17T02:53:56;99039.69;;;8.83;nan
19624;BME280;9959;49.798;9.928;2022-09-17T02:56:35;99037.91;;;8.95;nan
19624;BME280;9959;49.798;9.928;2022-09-17T02:59:14;99033.44;;;8.96;nan
19624;BME280;9959;49.798;9.928;2022-09-17T03:01:47;99035.41;;;9.00;nan
19624;BME280;9959;49.798;9.928;2022-09-17T03:04:20;99029.03;;;9.08;nan
19624;BME280;9959;49.798;9.928;2022-09-17T03:06:51;99030.50;;;9.04;nan
19624;BME280;9959;49.798;9.928;2022-09-17T03:09:19;99021.09;;;8.96;nan
19624;BME280;9959;49.798;9.928;2022-09-17T03:11:47;99022.69;;;8.97;nan
19624;BME280;9959;49.798;9.928;2022-09-17T03:14:14;99031.34;;;9.16;nan
19624;BME280;9959;49.798;9.928;2022-09-17T03:16:42;99039.53;;;9.08;nan
19624;BME280;9959;49.798;9.928;2022-09-17T03:19:10;99027.78;;;9.11;nan
19624;BME280;9959;49.798;9.928;2022-09-17T03:21:39;99026.53;;;9.13;nan
19624;BME280;9959;49.798;9.928;2022-09-17T03:24:07;99025.72;;;9.13;nan
19624;BME280;9959;49.798;9.928;2022-09-17T03:26:37;99031.34;;;9.16;nan
19624;BME280;9959;49.798;9.928;2022-09-17T03:29:05;99025.97;;;9.23;nan
19624;BME280;9959;49.798;9.928;2022-09-17T03:31:33;99031.22;;;9.23;nan
19624;BME280;9959;49.798;9.928;2022-09-17T03:34:01;99034.75;;;9.17;nan
19624;BME280;9959;49.798;9.928;2022-09-17T03:36:29;99038.78;;;9.19;nan
19624;BME280;9959;49.798;9.928;2022-09-17T03:38:59;99030.44;;;9.23;nan
19624;BME280;9959;49.798;9.928;2022-09-17T03:41:27;99032.25;;;9.22;nan
19624;BME280;9959;49.798;9.928;2022-09-17T03:43:55;99036.38;;;9.30;nan
19624;BME280;9959;49.798;9.928;2022-09-17T03:46:22;99040.72;;;9.24;nan
19624;BME280;9959;49.798;9.928;2022-09-17T03:48:50;99038.78;;;9.19;nan
19624;BME280;9959;49.798;9.928;2022-09-17T03:51:18;99046.97;;;9.11;nan
19624;BME280;9959;49.798;9.928;2022-09-17T03:53:46;99044.66;;;9.03;nan
19624;BME280;9959;49.798;9.928;2022-09-17T03:56:16;99038.34;;;8.92;nan
19624;BME280;9959;49.798;9.928;2022-09-17T03:58:43;99045.31;;;8.87;nan
19624;BME280;9959;49.798;9.928;2022-09-17T04:01:11;99048.47;;;8.77;nan
19624;BME280;9959;49.798;9.928;2022-09-17T04:03:39;99049.13;;;8.72;nan
19624;BME280;9959;49.798;9.928;2022-09-17T04:06:07;99048.56;;;8.70;nan
19624;BME280;9959;49.798;9.928;2022-09-17T04:08:35;99050.06;;;8.78;nan
19624;BME280;9959;49.798;9.928;2022-09-17T04:11:03;99056.53;;;8.63;nan
19624;BME280;9959;49.798;9.928;2022-09-17T04:13:34;99065.16;;;8.52;nan
19624;BME280;9959;49.798;9.928;2022-09-17T04:16:02;99059.66;;;8.54;nan
19624;BME280;9959;49.798;9.928;2022-09-17T04:18:30;99061.34;;;8.48;nan
19624;BME280;9959;49.798;9.928;2022-09-17T04:20:58;99064.91;;;8.54;nan
19624;BME280;9959;49.798;9.928;2022-09-17T04:23:26;99071.28;;;8.46;nan
19624;BME280;9959;49.798;9.928;2022-09-17T04:25:54;99064.03;;;8.41;nan
19624;BME280;9959;49.798;9.928;2022-09-17T04:28:22;99067.47;;;8.42;nan
19624;BME280;9959;49.798;9.928;2022-09-17T04:30:51;99076.50;;;8.27;nan
19624;BME280;9959;49.798;9.928;2022-09-17T04:33:19;99071.81;;;8.29;nan
19624;BME280;9959;49.798;9.928;2022-09-17T04:35:47;99070.66;;;8.25;nan
19624;BME280;9959;49.798;9.928;2022-09-17T04:38:15;99068.91;;;8.19;nan
19624;BME280;9959;49.798;9.928;2022-09-17T04:40:46;99071.09;;;8.22;nan
19624;BME280;9959;49.798;9.928;2022-09-17T04:43:13;99065.81;;;8.04;nan
19624;BME280;9959;49.798;9.928;2022-09-17T04:45:44;99070.22;;;8.10;nan
19624;BME280;9959;49.798;9.928;2022-09-17T04:48:13;99067.00;;;8.08;nan
19624;BME280;9959;49.798;9.928;2022-09-17T04:50:41;99064.16;;;8.09;nan
19624;BME280;9959;49.798;9.928;2022-09-17T04:53:09;99068.63;;;8.09;nan
19624;BME280;9959;49.798;9.928;2022-09-17T04:55:38;99074.66;;;8.09;nan
19624;BME280;9959;49.798;9.928;2022-09-17T04:58:06;99073.66;;;8.10;nan
19624;BME280;9959;49.798;9.928;2022-09-17T05:00:34;99078.31;;;8.08;nan
19624;BME280;9959;49.798;9.928;2022-09-17T05:03:02;99076.06;;;8.12;nan
19624;BME280;9959;49.798;9.928;2022-09-17T05:05:32;99073.88;;;8.09;nan
19624;BME280;9959;49.798;9.928;2022-09-17T05:08:00;99071.25;;;8.09;nan
19624;BME280;9959;49.798;9.928;2022-09-17T05:10:28;99074.75;;;8.03;nan
19624;BME280;9959;49.798;9.928;2022-09-17T05:12:56;99072.75;;;8.16;nan
19624;BME280;9959;49.798;9.928;2022-09-17T05:15:24;99081.09;;;8.13;nan
19624;BME280;9959;49.798;9.928;2022-09-17T05:17:53;99087.66;;;8.04;nan
19624;BME280;9959;49.798;9.928;2022-09-17T05:20:21;99078.53;;;8.07;nan
19624;BME280;9959;49.798;9.928;2022-09-17T05:22:51;99084.38;;;8.09;nan
19624;BME280;9959;49.798;9.928;2022-09-17T05:25:20;99078.25;;;8.15;nan
19624;BME280;9959;49.798;9.928;2022-09-17T05:27:50;99084.75;;;8.12;nan
19624;BME280;9959;49.798;9.928;2022-09-17T05:30:18;99080.50;;;8.11;nan
19624;BME280;9959;49.798;9.928;2022-09-17T05:32:47;99087.94;;;8.14;nan
19624;BME280;9959;49.798;9.928;2022-09-17T05:35:15;99092.31;;;8.21;nan
19624;BME280;9959;49.798;9.928;2022-09-17T05:37:43;99097.78;;;8.19;nan
19624;BME280;9959;49.798;9.928;2022-09-17T05:40:12;99103.25;;;8.18;nan
19624;BME280;9959;49.798;9.928;2022-09-17T05:42:40;99102.69;;;8.15;nan
19624;BME280;9959;49.798;9.928;2022-09-17T05:45:09;99113.53;;;8.19;nan
19624;BME280;9959;49.798;9.928;2022-09-17T05:47:37;99111.94;;;8.18;nan
19624;BME280;9959;49.798;9.928;2022-09-17T05:50:05;99113.28;;;8.27;nan
19624;BME280;9959;49.798;9.928;2022-09-17T05:52:33;99115.09;;;8.27;nan
19624;BME280;9959;49.798;9.928;2022-09-17T05:55:01;99110.88;;;8.26;nan
19624;BME280;9959;49.798;9.928;2022-09-17T05:57:30;99115.50;;;8.24;nan
19624;BME280;9959;49.798;9.928;2022-09-17T05:59:58;99125.78;;;8.25;nan
19624;BME280;9959;49.798;9.928;2022-09-17T06:02:26;99132.66;;;8.26;nan
19624;BME280;9959;49.798;9.928;2022-09-17T06:04:53;99122.59;;;8.23;nan
19624;BME280;9959;49.798;9.928;2022-09-17T06:07:21;99132.88;;;8.25;nan
19624;BME280;9959;49.798;9.928;2022-09-17T06:09:49;99130.44;;;8.30;nan
19624;BME280;9959;49.798;9.928;2022-09-17T06:12:17;99123.50;;;8.36;nan
19624;BME280;9959;49.798;9.928;2022-09-17T06:14:46;99122.47;;;8.37;nan
19624;BME280;9959;49.798;9.928;2022-09-17T06:17:14;99123.50;;;8.36;nan
19624;BME280;9959;49.798;9.928;2022-09-17T06:19:47;99123.19;;;8.44;nan
19624;BME280;9959;49.798;9.928;2022-09-17T06:22:16;99113.94;;;8.41;nan
19624;BME280;9959;49.798;9.928;2022-09-17T06:24:44;99112.56;;;8.39;nan
19624;BME280;9959;49.798;9.928;2022-09-17T06:27:12;99124.41;;;8.48;nan
19624;BME280;9959;49.798;9.928;2022-09-17T06:29:40;99120.31;;;8.52;nan
19624;BME280;9959;49.798;9.928;2022-09-17T06:32:09;99125.56;;;8.52;nan
19624;BME280;9959;49.798;9.928;2022-09-17T06:34:38;99129.22;;;8.51;nan
19624;BME280;9959;49.798;9.928;2022-09-17T06:37:06;99132.66;;;8.70;nan
19624;BME280;9959;49.798;9.928;2022-09-17T06:39:34;99131.25;;;8.67;nan
19624;BME280;9959;49.798;9.928;2022-09-17T06:42:02;99137.16;;;8.81;nan
19624;BME280;9959;49.798;9.928;2022-09-17T06:44:31;99137.03;;;8.76;nan
19624;BME280;9959;49.798;9.928;2022-09-17T06:46:58;99147.88;;;8.80;nan
19624;BME280;9959;49.798;9.928;2022-09-17T06:49:28;99150.59;;;8.92;nan
19624;BME280;9959;49.798;9.928;2022-09-17T06:51:56;99141.56;;;8.88;nan
19624;BME280;9959;49.798;9.928;2022-09-17T06:54:24;99137.47;;;8.92;nan
19624;BME280;9959;49.798;9.928;2022-09-17T06:56:52;99139.41;;;8.96;nan
19624;BME280;9959;49.798;9.928;2022-09-17T06:59:20;99138.91;;;9.06;nan
19624;BME280;9959;49.798;9.928;2022-09-17T07:01:48;99138.47;;;9.21;nan
19624;BME280;9959;49.798;9.928;2022-09-17T07:04:16;99138.34;;;9.16;nan
19624;BME280;9959;49.798;9.928;2022-09-17T07:06:45;99144.28;;;9.11;nan
19624;BME280;9959;49.798;9.928;2022-09-17T07:09:13;99143.25;;;9.12;nan
19624;BME280;9959;49.798;9.928;2022-09-17T07:11:41;99142.50;;;9.24;nan
19624;BME280;9959;49.798;9.928;2022-09-17T07:14:09;99134.94;;;9.27;nan
19624;BME280;9959;49.798;9.928;2022-09-17T07:16:37;99140.00;;;9.29;nan
19624;BME280;9959;49.798;9.928;2022-09-17T07:19:05;99149.03;;;9.33;nan
19624;BME280;9959;49.798;9.928;2022-09-17T07:21:34;99146.06;;;9.29;nan
19624;BME280;9959;49.798;9.928;2022-09-17T07:24:04;99149.00;;;9.51;nan
19624;BME280;9959;49.798;9.928;2022-09-17T07:26:32;99149.00;;;9.51;nan
19624;BME280;9959;49.798;9.928;2022-09-17T07:28:59;99159.69;;;9.80;nan
19624;BME280;9959;49.798;9.928;2022-09-17T07:31:27;99157.66;;;9.94;nan
19624;BME280;9959;49.798;9.928;2022-09-17T07:33:56;99152.84;;;9.91;nan
19624;BME280;9959;49.798;9.928;2022-09-17T07:36:24;99158.34;;;10.01;nan
19624;BME280;9959;49.798;9.928;2022-09-17T07:38:52;99164.94;;;10.34;nan
19624;BME280;9959;49.798;9.928;2022-09-17T07:41:22;99162.47;;;10.21;nan
19624;BME280;9959;49.798;9.928;2022-09-17T07:43:51;99169.72;;;10.37;nan
19624;BME280;9959;49.798;9.928;2022-09-17T07:46:20;99170.16;;;10.22;nan
19624;BME280;9959;49.798;9.928;2022-09-17T07:48:49;99171.53;;;10.25;nan
19624;BME280;9959;49.798;9.928;2022-09-17T07:51:18;99169.34;;;10.22;nan
19624;BME280;9959;49.798;9.928;2022-09-17T07:53:49;99179.56;;;10.54;nan
19624;BME280;9959;49.798;9.928;2022-09-17T07:56:18;99180.25;;;10.49;nan
19624;BME280;9959;49.798;9.928;2022-09-17T07:58:47;99174.50;;;10.76;nan
19624;BME280;9959;49.798;9.928;2022-09-17T08:01:16;99183.56;;;11.21;nan
19624;BME280;9959;49.798;9.928;2022-09-17T08:03:47;99188.31;;;11.36;nan
19624;BME280;9959;49.798;9.928;2022-09-17T08:06:18;99194.34;;;11.19;nan
19624;BME280;9959;49.798;9.928;2022-09-17T08:08:47;99191.47;;;11.67;nan
19624;BME280;9959;49.798;9.928;2022-09-17T08:11:17;99193.88;;;11.51;nan
19624;BME280;9959;49.798;9.928;2022-09-17T08:14:05;99194.69;;;11.69;nan
19624;BME280;9959;49.798;9.928;2022-09-17T08:16:33;99202.47;;;11.46;nan
19624;BME280;9959;49.798;9.928;2022-09-17T08:19:01;99203.09;;;11.66;nan
19624;BME280;9959;49.798;9.928;2022-09-17T08:21:29;99201.41;;;11.76;nan
19624;BME280;9959;49.798;9.928;2022-09-17T08:23:57;99201.75;;;11.80;nan
19624;BME280;9959;49.798;9.928;2022-09-17T08:26:25;99198.91;;;11.53;nan
19624;BME280;9959;49.798;9.928;2022-09-17T08:28:54;99211.91;;;11.71;nan
19624;BME280;9959;49.798;9.928;2022-09-17T08:31:25;99209.41;;;11.93;nan
19624;BME280;9959;49.798;9.928;2022-09-17T08:33:54;99206.69;;;12.61;nan
19624;BME280;9959;49.798;9.928;2022-09-17T08:36:22;99202.66;;;12.37;nan
19624;BME280;9959;49.798;9.928;2022-09-17T08:38:52;99203.03;;;12.45;nan
19624;BME280;9959;49.798;9.928;2022-09-17T08:41:24;99200.91;;;12.08;nan
19624;BME280;9959;49.798;9.928;2022-09-17T08:44:03;99211.84;;;12.51;nan
19624;BME280;9959;49.798;9.928;2022-09-17T08:46:45;99203.88;;;12.68;nan
19624;BME280;9959;49.798;9.928;2022-09-17T08:49:22;99208.59;;;12.66;nan
19624;BME280;9959;49.798;9.928;2022-09-17T08:52:04;99205.88;;;13.00;nan
19624;BME280;9959;49.798;9.928;2022-09-17T08:54:41;99211.34;;;13.65;nan
19624;BME280;9959;49.798;9.928;2022-09-17T08:57:17;99215.84;;;13.37;nan
19624;BME280;9959;49.798;9.928;2022-09-17T08:59:53;99223.16;;;12.86;nan
19624;BME280;9959;49.798;9.928;2022-09-17T09:02:35;99217.25;;;12.78;nan
19624;BME280;9959;49.798;9.928;2022-09-17T09:05:10;99212.75;;;13.23;nan
19624;BME280;9959;49.798;9.928;2022-09-17T09:07:44;99198.63;;;13.12;nan
19624;BME280;9959;49.798;9.928;2022-09-17T12:49:13;99136.19;;;15.76;nan
19624;BME280;9959;49.798;9.928;2022-09-17T12:51:53;99125.25;;;15.06;nan
19624;BME280;9959;49.798;9.928;2022-09-17T12:54:39;99138.13;;;14.71;nan
19624;BME280;9959;49.798;9.928;2022-09-17T12:57:22;99125.75;;;15.08;nan
19624;BME280;9959;49.798;9.928;2022-09-17T12:59:58;99115.31;;;14.70;nan
19624;BME280;9959;49.798;9.928;2022-09-17T13:02:37;99115.06;;;14.77;nan
19624;BME280;9959;49.798;9.928;2022-09-17T13:05:33;99098.97;;;16.12;nan
19624;BME280;9959;49.798;9.928;2022-09-17T13:08:33;99097.31;;;17.37;nan
19624;BME280;9959;49.798;9.928;2022-09-17T13:24:22;99093.97;;;17.56;nan
19624;BME280;9959;49.798;9.928;2022-09-17T13:26:53;99100.50;;;17.74;nan
19624;BME280;9959;49.798;9.928;2022-09-17T13:29:57;99100.22;;;17.41;nan
19624;BME280;9959;49.798;9.928;2022-09-17T13:32:43;99087.53;;;18.64;nan
19624;BME280;9959;49.798;9.928;2022-09-17T13:35:48;99094.88;;;18.53;nan
19624;BME280;9959;49.798;9.928;2022-09-17T13:38:18;99086.53;;;17.52;nan
19624;BME280;9959;49.798;9.928;2022-09-17T13:40:49;99106.16;;;16.02;nan
19624;BME280;9959;49.798;9.928;2022-09-17T13:43:19;99122.84;;;15.04;nan
19624;BME280;9959;49.798;9.928;2022-09-17T13:46:09;99124.94;;;14.34;nan
19624;BME280;9959;49.798;9.928;2022-09-17T13:48:50;99126.06;;;15.22;nan
19624;BME280;9959;49.798;9.928;2022-09-17T13:51:46;99120.22;;;16.23;nan
19624;BME280;9959;49.798;9.928;2022-09-17T13:54:17;99118.56;;;17.47;nan
19624;BME280;9959;49.798;9.928;2022-09-17T13:56:49;99117.25;;;17.45;nan
19624;BME280;9959;49.798;9.928;2022-09-17T13:59:20;99103.75;;;17.95;nan
19624;BME280;9959;49.798;9.928;2022-09-17T14:02:00;99109.03;;;18.05;nan
19624;BME280;9959;49.798;9.928;2022-09-17T14:04:46;99100.47;;;18.08;nan
19624;BME280;9959;49.798;9.928;2022-09-17T14:07:31;99111.56;;;17.57;nan
19624;BME280;9959;49.798;9.928;2022-09-17T14:09:59;99095.03;;;18.81;nan
19624;BME280;9959;49.798;9.928;2022-09-17T14:12:54;99098.75;;;18.17;nan
19624;BME280;9959;49.798;9.928;2022-09-17T14:15:35;99098.16;;;18.20;nan
19624;BME280;9959;49.798;9.928;2022-09-17T14:18:34;99097.63;;;19.10;nan
19624;BME280;9959;49.798;9.928;2022-09-17T14:21:12;99100.91;;;18.40;nan
19624;BME280;9959;49.798;9.928;2022-09-17T14:23:42;99096.94;;;18.37;nan
19624;BME280;9959;49.798;9.928;2022-09-17T14:26:17;99085.69;;;17.57;nan
19624;BME280;9959;49.798;9.928;2022-09-17T14:28:53;99083.50;;;18.66;nan
19624;BME280;9959;49.798;9.928;2022-09-17T14:31:30;99091.31;;;18.14;nan
19624;BME280;9959;49.798;9.928;2022-09-17T14:34:04;99082.50;;;17.60;nan
19624;BME280;9959;49.798;9.928;2022-09-17T14:36:36;99081.72;;;18.37;nan
19624;BME280;9959;49.798;9.928;2022-09-17T14:39:09;99078.09;;;18.71;nan
19624;BME280;9959;49.798;9.928;2022-09-17T14:41:41;99082.69;;;18.90;nan
19624;BME280;9959;49.798;9.928;2022-09-17T14:44:13;99077.78;;;18.97;nan
19624;BME280;9959;49.798;9.928;2022-09-17T14:46:47;99078.84;;;19.15;nan
19624;BME280;9959;49.798;9.928;2022-09-17T14:49:21;99083.63;;;18.56;nan
19624;BME280;9959;49.798;9.928;2022-09-17T14:51:49;99090.06;;;18.31;nan
19624;BME280;9959;49.798;9.928;2022-09-17T14:54:20;99087.31;;;18.79;nan
19624;BME280;9959;49.798;9.928;2022-09-17T14:56:53;99095.97;;;17.00;nan
19624;BME280;9959;49.798;9.928;2022-09-17T14:59:26;99090.53;;;16.60;nan
19624;BME280;9959;49.798;9.928;2022-09-17T15:01:55;99091.03;;;15.76;nan
19624;BME280;9959;49.798;9.928;2022-09-17T15:04:26;99093.94;;;15.18;nan
19624;BME280;9959;49.798;9.928;2022-09-17T15:07:06;99089.19;;;15.36;nan
19624;BME280;9959;49.798;9.928;2022-09-17T15:09:35;99097.97;;;16.69;nan
19624;BME280;9959;49.798;9.928;2022-09-17T15:12:04;99083.31;;;17.21;nan
19624;BME280;9959;49.798;9.928;2022-09-17T15:14:36;99096.38;;;16.68;nan
19624;BME280;9959;49.798;9.928;2022-09-17T15:17:06;99094.66;;;16.22;nan
19624;BME280;9959;49.798;9.928;2022-09-17T15:19:43;99092.63;;;15.83;nan
19624;BME280;9959;49.798;9.928;2022-09-17T15:22:15;99090.75;;;15.37;nan
19624;BME280;9959;49.798;9.928;2022-09-17T15:24:47;99089.94;;;15.21;nan
19624;BME280;9959;49.798;9.928;2022-09-17T15:27:24;99090.75;;;15.26;nan
19624;BME280;9959;49.798;9.928;2022-09-17T15:30:01;99098.16;;;15.04;nan
19624;BME280;9959;49.798;9.928;2022-09-17T15:32:31;99088.56;;;14.82;nan
19624;BME280;9959;49.798;9.928;2022-09-17T15:35:19;99095.19;;;14.85;nan
19624;BME280;9959;49.798;9.928;2022-09-17T15:37:48;99109.41;;;14.58;nan
19624;BME280;9959;49.798;9.928;2022-09-17T15:40:38;99119.16;;;14.42;nan
19624;BME280;9959;49.798;9.928;2022-09-17T15:43:15;99139.47;;;13.88;nan
19624;BME280;9959;49.798;9.928;2022-09-17T15:45:44;99154.38;;;12.86;nan
19624;BME280;9959;49.798;9.928;2022-09-17T15:48:22;99194.97;;;11.38;nan
19624;BME280;9959;49.798;9.928;2022-09-17T15:51:02;99193.06;;;10.69;nan
19624;BME280;9959;49.798;9.928;2022-09-17T15:53:33;99184.72;;;10.37;nan
19624;BME280;9959;49.798;9.928;2022-09-17T15:56:04;99181.47;;;10.11;nan
19624;BME280;9959;49.798;9.928;2022-09-17T15:58:36;99181.00;;;10.02;nan
19624;BME280;9959;49.798;9.928;2022-09-17T16:04:23;99154.66;;;9.90;nan
19624;BME280;9959;49.798;9.928;2022-09-17T16:07:01;99150.34;;;11.08;nan
19624;BME280;9959;49.798;9.928;2022-09-17T16:09:45;99158.50;;;12.37;nan
19624;BME280;9959;49.798;9.928;2022-09-17T16:12:17;99160.28;;;12.71;nan
19624;BME280;9959;49.798;9.928;2022-09-17T16:14:50;99159.13;;;13.11;nan
19624;BME280;9959;49.798;9.928;2022-09-17T16:17:27;99160.34;;;14.17;nan
19624;BME280;9959;49.798;9.928;2022-09-17T16:19:58;99163.69;;;13.97;nan
19624;BME280;9959;49.798;9.928;2022-09-17T16:22:33;99155.13;;;13.58;nan
19624;BME280;9959;49.798;9.928;2022-09-17T16:25:01;99153.47;;;13.79;nan
19624;BME280;9959;49.798;9.928;2022-09-17T16:27:31;99165.31;;;12.94;nan
19624;BME280;9959;49.798;9.928;2022-09-17T16:30:06;99162.22;;;12.80;nan
19624;BME280;9959;49.798;9.928;2022-09-17T16:32:35;99184.56;;;12.28;nan
19624;BME280;9959;49.798;9.928;2022-09-17T16:35:04;99184.00;;;12.09;nan
19624;BME280;9959;49.798;9.928;2022-09-17T16:37:33;99178.00;;;12.31;nan
19624;BME280;9959;49.798;9.928;2022-09-17T16:40:01;99183.59;;;12.35;nan
19624;BME280;9959;49.798;9.928;2022-09-17T16:42:29;99182.16;;;12.10;nan
19624;BME280;9959;49.798;9.928;2022-09-17T16:44:57;99178.19;;;11.61;nan
19624;BME280;9959;49.798;9.928;2022-09-17T16:47:33;99172.00;;;12.19;nan
19624;BME280;9959;49.798;9.928;2022-09-17T16:50:04;99175.41;;;11.85;nan
19624;BME280;9959;49.798;9.928;2022-09-17T16:52:34;99175.97;;;11.70;nan
19624;BME280;9959;49.798;9.928;2022-09-17T16:55:03;99169.47;;;11.61;nan
19624;BME280;9959;49.798;9.928;2022-09-17T16:57:32;99184.91;;;11.98;nan
19624;BME280;9959;49.798;9.928;2022-09-17T17:00:00;99185.25;;;11.73;nan
19624;BME280;9959;49.798;9.928;2022-09-17T17:02:29;99172.16;;;11.49;nan
19624;BME280;9959;49.798;9.928;2022-09-17T17:04:57;99173.78;;;11.21;nan
19624;BME280;9959;49.798;9.928;2022-09-17T17:07:25;99174.31;;;11.06;nan
19624;BME280;9959;49.798;9.928;2022-09-17T17:09:54;99173.72;;;11.04;nan
19624;BME280;9959;49.798;9.928;2022-09-17T17:12:22;99175.50;;;10.87;nan
19624;BME280;9959;49.798;9.928;2022-09-17T17:14:50;99179.16;;;10.86;nan
19624;BME280;9959;49.798;9.928;2022-09-17T17:17:19;99175.75;;;10.73;nan
19624;BME280;9959;49.798;9.928;2022-09-17T17:19:47;99176.00;;;10.72;nan
19624;BME280;9959;49.798;9.928;2022-09-17T17:22:15;99172.34;;;10.61;nan
19624;BME280;9959;49.798;9.928;2022-09-17T17:24:43;99164.22;;;10.51;nan
19624;BME280;9959;49.798;9.928;2022-09-17T17:27:12;99173.94;;;10.38;nan
19624;BME280;9959;49.798;9.928;2022-09-17T17:29:40;99167.41;;;10.53;nan
19624;BME280;9959;49.798;9.928;2022-09-17T17:32:08;99174.31;;;10.42;nan
19624;BME280;9959;49.798;9.928;2022-09-17T17:34:36;99171.28;;;10.27;nan
19624;BME280;9959;49.798;9.928;2022-09-17T17:37:04;99167.97;;;10.19;nan
19624;BME280;9959;49.798;9.928;2022-09-17T17:39:32;99167.41;;;10.17;nan
19624;BME280;9959;49.798;9.928;2022-09-17T17:42:00;99165.91;;;10.10;nan
19624;BME280;9959;49.798;9.928;2022-09-17T17:44:29;99171.31;;;10.15;nan
19624;BME280;9959;49.798;9.928;2022-09-17T17:46:57;99175.31;;;10.17;nan
19624;BME280;9959;49.798;9.928;2022-09-17T17:49:25;99165.56;;;10.06;nan
19624;BME280;9959;49.798;9.928;2022-09-17T17:51:53;99179.75;;;10.05;nan
19624;BME280;9959;49.798;9.928;2022-09-17T17:54:21;99184.09;;;9.99;nan
19624;BME280;9959;49.798;9.928;2022-09-17T17:56:49;99197.28;;;9.99;nan
19624;BME280;9959;49.798;9.928;2022-09-17T17:59:17;99204.72;;;10.02;nan
19624;BME280;9959;49.798;9.928;2022-09-17T18:01:46;99199.34;;;9.97;nan
19624;BME280;9959;49.798;9.928;2022-09-17T18:04:15;99193.25;;;9.97;nan